Time;durP1;ratioP1;P1;durP2;ratioP2;P2;SDS_P1;SDS_P2;PMS_P1;PMS_P2;Temp;Humidity;BMP_temperature;BMP_pressure;BME280_temperature;BME280_humidity;BME280_pressure;Samples;Min_cycle;Max_cycle;Signal;HPM_P1;HPM_P2
2021/04/01 00:00:56;;;;;;;7.37;3.27;;;;;;;13.36;58.55;96877.50;4968453;28;21128;-72
2021/04/01 00:03:25;;;;;;;7.40;3.37;;;;;;;13.33;58.68;96869.88;4969269;28;20472;-73
2021/04/01 00:05:52;;;;;;;11.43;3.80;;;;;;;13.28;58.72;96866.75;4958132;28;20443;-72
2021/04/01 00:08:19;;;;;;;10.03;3.20;;;;;;;13.24;58.95;96869.66;4957709;28;20469;-72
2021/04/01 00:10:46;;;;;;;8.50;2.90;;;;;;;13.22;58.73;96861.94;4966790;28;20441;-71
2021/04/01 00:13:13;;;;;;;10.40;3.13;;;;;;;13.14;58.77;96868.63;4968052;28;21047;-73
2021/04/01 00:15:41;;;;;;;14.40;3.13;;;;;;;13.16;59.14;96859.75;4969324;28;20511;-74
2021/04/01 00:18:09;;;;;;;7.80;3.00;;;;;;;13.14;59.09;96859.00;4969704;28;21039;-72
2021/04/01 00:20:37;;;;;;;10.37;3.80;;;;;;;13.07;59.62;96856.91;4967738;28;20471;-72
2021/04/01 00:23:05;;;;;;;6.33;2.90;;;;;;;13.04;59.70;96857.09;4967065;28;20555;-71
2021/04/01 00:25:32;;;;;;;8.50;3.23;;;;;;;12.88;60.12;96851.22;4963917;28;20820;-73
2021/04/01 00:28:06;;;;;;;15.40;3.43;;;;;;;12.91;60.33;96856.25;4967587;28;20858;-72
2021/04/01 00:30:33;;;;;;;11.60;3.40;;;;;;;12.88;60.13;96848.59;4966245;28;20445;-73
2021/04/01 00:33:00;;;;;;;6.30;2.87;;;;;;;12.86;59.90;96847.88;4981592;28;20457;-73
2021/04/01 00:35:27;;;;;;;12.30;3.17;;;;;;;12.77;60.04;96843.25;5000316;28;21017;-74
2021/04/01 00:37:56;;;;;;;10.00;3.10;;;;;;;12.77;60.08;96838.03;4967628;28;20495;-72
2021/04/01 00:40:24;;;;;;;17.53;3.43;;;;;;;12.78;60.04;96845.78;4968010;28;20481;-74
2021/04/01 00:42:51;;;;;;;11.23;4.47;;;;;;;12.74;60.07;96849.53;4967459;28;20469;-71
2021/04/01 00:45:18;;;;;;;6.40;3.57;;;;;;;12.67;60.14;96842.19;4966826;28;20944;-70
2021/04/01 00:47:48;;;;;;;8.60;3.00;;;;;;;12.63;60.38;96841.53;4984715;28;21011;-71
2021/04/01 00:50:18;;;;;;;7.10;3.30;;;;;;;12.63;60.53;96838.13;4965801;28;20904;-71
2021/04/01 00:52:45;;;;;;;6.30;3.27;;;;;;;12.64;60.82;96839.78;4967277;28;21035;-73
2021/04/01 00:55:14;;;;;;;5.97;2.60;;;;;;;12.49;61.17;96838.19;4981582;28;21011;-72
2021/04/01 00:57:43;;;;;;;9.93;3.30;;;;;;;12.42;61.57;96836.91;4967723;28;20698;-73
2021/04/01 01:00:13;;;;;;;10.63;2.43;;;;;;;12.43;61.32;96838.59;4957659;28;20912;-74
2021/04/01 01:02:40;;;;;;;8.90;3.53;;;;;;;12.42;61.50;96836.91;4955937;28;20552;-72
2021/04/01 01:05:12;;;;;;;8.30;2.60;;;;;;;12.40;61.36;96844.00;4955811;28;20935;-75
2021/04/01 01:07:40;;;;;;;10.10;3.07;;;;;;;12.30;61.80;96837.69;4966693;28;20819;-73
2021/04/01 01:10:09;;;;;;;9.33;3.13;;;;;;;12.27;62.10;96834.44;4983016;28;20478;-74
2021/04/01 01:12:37;;;;;;;7.27;3.00;;;;;;;12.25;62.00;96829.34;4983673;28;20449;-74
2021/04/01 01:15:06;;;;;;;6.70;3.57;;;;;;;12.13;62.42;96824.91;4968090;28;20475;-74
2021/04/01 01:17:33;;;;;;;10.07;3.03;;;;;;;12.22;62.51;96829.53;4958636;28;21153;-74
2021/04/01 01:20:00;;;;;;;10.10;3.17;;;;;;;12.15;62.31;96823.03;4998105;28;20851;-71
2021/04/01 01:22:28;;;;;;;13.77;3.70;;;;;;;12.11;63.21;96829.41;4964322;28;20465;-72
2021/04/01 01:24:56;;;;;;;7.63;4.00;;;;;;;12.06;63.18;96822.81;4967578;28;20982;-72
2021/04/01 01:27:23;;;;;;;9.63;4.03;;;;;;;12.01;63.21;96819.66;4980616;28;21124;-74
2021/04/01 01:29:50;;;;;;;6.93;3.17;;;;;;;12.03;63.13;96818.63;4978812;28;20437;-71
2021/04/01 01:32:18;;;;;;;10.80;3.30;;;;;;;12.04;63.11;96822.91;4969384;28;20460;-70
2021/04/01 01:34:48;;;;;;;12.13;2.80;;;;;;;12.04;63.14;96820.28;4993856;28;20928;-71
2021/04/01 01:37:15;;;;;;;10.73;3.40;;;;;;;11.99;63.27;96811.91;4965776;28;20481;-72
2021/04/01 01:39:45;;;;;;;13.97;3.30;;;;;;;11.98;63.34;96810.25;4965333;28;20930;-71
2021/04/01 01:42:17;;;;;;;9.40;3.60;;;;;;;11.81;63.75;96807.88;4980226;28;20799;-72
2021/04/01 01:44:44;;;;;;;9.37;2.70;;;;;;;11.76;63.97;96809.94;4966709;28;20442;-73
2021/04/01 01:47:11;;;;;;;9.07;3.30;;;;;;;11.74;64.15;96811.81;4966293;28;20511;-70
2021/04/01 01:49:41;;;;;;;6.37;3.63;;;;;;;11.79;64.21;96809.72;4966955;28;20920;-72
2021/04/01 01:52:08;;;;;;;9.80;3.80;;;;;;;11.75;63.99;96787.41;4967689;28;20526;-71
2021/04/01 01:54:35;;;;;;;6.73;2.67;;;;;;;11.87;63.75;96806.66;4966057;28;20959;-70
2021/04/01 01:57:03;;;;;;;10.70;4.20;;;;;;;11.81;64.01;96807.88;4965887;28;20769;-72
2021/04/01 01:59:30;;;;;;;16.07;4.60;;;;;;;11.81;64.56;96796.59;4966485;28;20461;-70
2021/04/01 02:01:58;;;;;;;11.30;4.20;;;;;;;11.77;64.34;96801.16;4965261;28;20436;-73
2021/04/01 02:04:25;;;;;;;14.40;5.40;;;;;;;11.72;64.39;96798.00;4965407;28;20737;-72
2021/04/01 02:06:52;;;;;;;10.10;4.27;;;;;;;11.70;64.63;96797.28;4965082;28;20756;-72
2021/04/01 02:09:19;;;;;;;10.17;4.53;;;;;;;11.72;64.78;96795.41;4967245;28;20520;-72
2021/04/01 02:11:46;;;;;;;13.07;4.00;;;;;;;11.74;64.60;96788.34;4979922;28;20456;-71
2021/04/01 02:14:13;;;;;;;10.03;4.03;;;;;;;11.66;64.87;96795.81;4981349;28;20791;-73
2021/04/01 02:16:41;;;;;;;12.37;4.67;;;;;;;11.44;65.75;96789.38;4965442;28;20931;-74
2021/04/01 02:19:08;;;;;;;9.47;3.80;;;;;;;11.37;65.85;96785.47;4994519;28;20489;-73
2021/04/01 02:21:35;;;;;;;6.73;3.37;;;;;;;11.31;66.09;96791.91;4969482;28;20499;-71
2021/04/01 02:24:02;;;;;;;8.73;4.03;;;;;;;11.20;66.32;96783.91;4983617;28;20468;-72
2021/04/01 02:26:29;;;;;;;17.73;3.70;;;;;;;11.23;66.47;96780.28;4967287;28;20438;-72
2021/04/01 02:28:56;;;;;;;12.13;3.70;;;;;;;11.29;66.20;96778.16;4959476;28;20956;-74
2021/04/01 02:31:22;;;;;;;13.13;4.33;;;;;;;11.28;65.82;96773.84;4960059;28;20924;-72
2021/04/01 02:33:52;;;;;;;13.10;4.67;;;;;;;11.32;66.00;96780.56;4959403;28;20814;-73
2021/04/01 02:36:19;;;;;;;18.37;4.43;;;;;;;11.30;66.25;96773.75;4962767;28;20437;-71
2021/04/01 02:38:47;;;;;;;12.00;5.07;;;;;;;11.19;66.41;96771.81;4983722;28;20851;-73
2021/04/01 02:41:13;;;;;;;9.87;4.60;;;;;;;11.23;66.56;96772.47;4967447;28;20998;-72
2021/04/01 02:43:40;;;;;;;9.10;4.57;;;;;;;11.26;66.49;96770.50;4967915;28;20469;-71
2021/04/01 02:46:08;;;;;;;12.83;5.10;;;;;;;11.21;67.21;96769.94;4968770;28;20864;-71
2021/04/01 02:48:36;;;;;;;14.63;4.80;;;;;;;11.16;66.93;96777.22;4982023;28;20833;-72
2021/04/01 02:51:05;;;;;;;12.57;5.00;;;;;;;11.25;66.62;96776.66;4970034;28;20769;-71
2021/04/01 02:53:32;;;;;;;11.30;5.30;;;;;;;11.15;67.05;96772.94;4968303;28;20862;-70
2021/04/01 02:55:59;;;;;;;15.13;5.67;;;;;;;11.19;67.05;96776.22;4971793;28;20449;-72
2021/04/01 02:58:26;;;;;;;19.60;4.97;;;;;;;11.05;67.47;96779.63;4970993;28;20964;-72
2021/04/01 03:00:59;;;;;;;13.90;4.90;;;;;;;11.03;67.63;96785.84;4968009;28;21289;-72
2021/04/01 03:03:29;;;;;;;12.67;5.33;;;;;;;10.99;67.68;96780.00;4965740;28;20860;-73
2021/04/01 03:05:57;;;;;;;17.90;4.10;;;;;;;10.98;67.54;96782.72;4966698;28;20836;-73
2021/04/01 03:08:50;;;;;;;12.43;5.20;;;;;;;10.81;68.55;96780.28;4970001;28;20461;-71
2021/04/01 03:11:17;;;;;;;10.33;4.23;;;;;;;10.70;68.32;96762.69;4968951;28;20449;-70
2021/04/01 03:13:44;;;;;;;10.73;4.07;;;;;;;10.79;68.31;96775.19;4967000;28;20959;-71
2021/04/01 03:16:11;;;;;;;14.07;4.77;;;;;;;10.82;68.19;96768.94;4968330;28;20464;-70
2021/04/01 03:18:38;;;;;;;10.13;4.30;;;;;;;10.82;68.04;96772.38;4967092;28;20955;-71
2021/04/01 03:21:06;;;;;;;15.60;4.27;;;;;;;10.83;67.95;96768.03;4984591;28;20469;-71
2021/04/01 03:23:33;;;;;;;13.43;3.77;;;;;;;10.76;68.12;96775.34;4967787;28;20824;-71
2021/04/01 03:26:01;;;;;;;5.50;4.00;;;;;;;10.79;68.02;96772.56;4968715;28;20477;-72
2021/04/01 03:28:28;;;;;;;10.67;4.50;;;;;;;10.67;68.08;96782.88;4968846;28;20480;-71
2021/04/01 03:31:00;;;;;;;8.73;3.97;;;;;;;10.67;68.32;96773.28;4968487;28;20959;-72
2021/04/01 03:33:28;;;;;;;10.70;3.73;;;;;;;10.72;68.35;96760.84;4965133;28;21234;-71
2021/04/01 03:35:55;;;;;;;10.97;4.10;;;;;;;10.68;68.36;96771.53;4968072;28;20889;-71
2021/04/01 03:38:25;;;;;;;18.27;5.30;;;;;;;10.61;68.63;96775.44;4969248;28;21071;-73
2021/04/01 03:40:54;;;;;;;13.37;3.17;;;;;;;10.63;68.82;96766.63;4968365;28;20563;-71
2021/04/01 03:43:23;;;;;;;11.37;4.77;;;;;;;10.50;68.96;96778.66;4967841;28;20784;-71
2021/04/01 03:45:51;;;;;;;13.93;3.90;;;;;;;10.53;69.09;96773.28;4970046;28;20904;-73
2021/04/01 03:48:18;;;;;;;15.37;4.03;;;;;;;10.66;69.16;96781.19;4999219;28;20465;-70
2021/04/01 03:50:45;;;;;;;15.03;4.83;;;;;;;10.66;69.21;96782.03;4967334;28;20507;-70
2021/04/01 03:53:12;;;;;;;13.67;4.27;;;;;;;10.63;69.06;96777.03;4965935;28;20982;-72
2021/04/01 03:55:40;;;;;;;9.10;4.67;;;;;;;10.67;69.12;96783.72;4984119;28;20460;-71
2021/04/01 03:58:35;;;;;;;10.60;4.57;;;;;;;10.64;69.11;96783.91;4980340;28;20497;-73
2021/04/01 04:04:02;;;;;;;16.90;4.80;;;;;;;10.59;69.41;96785.94;4949690;28;21059;-74
2021/04/01 04:09:31;;;;;;;9.33;4.20;;;;;;;10.43;69.67;96790.38;4966687;28;20472;-73
2021/04/01 04:12:06;;;;;;;16.30;4.43;;;;;;;10.47;69.45;96781.44;4964166;28;20447;-71
2021/04/01 04:14:36;;;;;;;9.73;3.77;;;;;;;10.48;69.58;96787.50;4965605;28;20444;-76
2021/04/01 04:17:04;;;;;;;27.07;4.87;;;;;;;10.42;69.61;96786.09;4968946;28;20450;-71
2021/04/01 04:19:35;;;;;;;16.23;4.93;;;;;;;10.42;70.04;96780.03;4964584;28;20860;-73
2021/04/01 04:22:02;;;;;;;12.00;4.13;;;;;;;10.43;69.79;96779.94;4967691;28;20441;-72
2021/04/01 04:24:33;;;;;;;11.50;4.77;;;;;;;10.46;69.49;96781.53;4966126;28;21001;-74
2021/04/01 04:27:08;;;;;;;8.20;4.60;;;;;;;10.38;69.71;96787.19;4965080;28;21020;-72
2021/04/01 04:29:35;;;;;;;17.27;4.60;;;;;;;10.41;69.84;96794.81;4967716;28;20742;-74
2021/04/01 04:32:02;;;;;;;19.30;4.73;;;;;;;10.27;70.18;96791.34;4968319;28;21074;-75
2021/04/01 04:34:33;;;;;;;10.93;3.80;;;;;;;10.17;70.68;96788.41;4979058;28;20528;-74
2021/04/01 04:37:01;;;;;;;16.90;4.83;;;;;;;10.14;70.65;96791.19;4968610;28;20824;-75
2021/04/01 04:39:28;;;;;;;11.70;4.57;;;;;;;10.08;70.72;96794.16;4976308;28;20739;-74
2021/04/01 04:41:54;;;;;;;17.30;5.27;;;;;;;10.13;70.80;96792.13;4967475;28;20449;-74
2021/04/01 04:44:21;;;;;;;11.37;4.83;;;;;;;10.17;70.94;96788.41;4998424;28;20452;-71
2021/04/01 04:46:48;;;;;;;10.40;4.50;;;;;;;10.26;70.63;96797.47;4970769;28;20915;-71
2021/04/01 04:49:15;;;;;;;8.17;4.33;;;;;;;10.32;70.26;96789.31;4966199;28;20475;-70
2021/04/01 04:51:43;;;;;;;15.37;4.40;;;;;;;10.33;70.58;96799.59;4969116;28;20927;-73
2021/04/01 04:54:10;;;;;;;11.13;4.63;;;;;;;10.40;70.39;96795.72;4965364;28;20891;-74
2021/04/01 04:56:37;;;;;;;6.53;4.63;;;;;;;10.43;70.49;96795.56;4968664;28;20995;-71
2021/04/01 04:59:09;;;;;;;15.63;4.70;;;;;;;10.42;70.62;96793.03;4965605;28;20524;-74
2021/04/01 05:04:43;;;;;;;15.43;5.50;;;;;;;10.31;70.53;96796.25;4991783;28;20746;-72
2021/04/01 05:07:12;;;;;;;11.40;4.30;;;;;;;10.26;70.50;96797.47;4979309;28;20539;-72
2021/04/01 05:09:39;;;;;;;13.37;5.30;;;;;;;10.19;70.75;96789.19;4983447;28;21144;-74
2021/04/01 05:12:08;;;;;;;10.60;4.20;;;;;;;10.10;71.42;96796.66;4981613;28;20768;-73
2021/04/01 05:14:35;;;;;;;7.73;4.03;;;;;;;10.08;71.40;96804.56;4959748;28;20935;-74
2021/04/01 05:17:03;;;;;;;11.80;4.47;;;;;;;10.12;71.46;96806.06;4967604;28;20518;-72
2021/04/01 05:19:32;;;;;;;9.13;3.80;;;;;;;10.01;71.48;96805.78;4967883;28;20526;-70
2021/04/01 05:22:04;;;;;;;8.93;4.17;;;;;;;10.03;71.75;96798.75;4982460;28;20457;-70
2021/04/01 05:24:33;;;;;;;11.77;5.50;;;;;;;10.05;71.48;96804.72;4983786;28;20838;-70
2021/04/01 05:27:13;;;;;;;14.40;4.97;;;;;;;10.07;71.71;96802.88;4966891;28;20805;-72
2021/04/01 05:29:40;;;;;;;19.53;4.03;;;;;;;10.13;71.66;96806.88;4959381;28;20750;-71
2021/04/01 05:32:08;;;;;;;12.30;4.00;;;;;;;10.18;71.54;96805.69;4966672;28;20452;-72
2021/04/01 05:34:37;;;;;;;15.53;4.80;;;;;;;10.39;71.15;96811.44;4966716;28;20438;-71
2021/04/01 05:37:06;;;;;;;18.50;10.17;;;;;;;10.47;70.95;96807.44;4965053;28;20959;-71
2021/04/01 05:39:35;;;;;;;15.03;8.67;;;;;;;10.54;70.77;96818.38;4967121;28;21267;-70
2021/04/01 05:42:03;;;;;;;15.13;5.67;;;;;;;10.56;70.76;96804.34;4966707;28;20522;-72
2021/04/01 05:44:33;;;;;;;17.70;5.17;;;;;;;10.73;70.41;96811.97;4982078;28;20447;-70
2021/04/01 05:47:04;;;;;;;8.10;3.63;;;;;;;10.83;69.82;96810.50;4997416;28;20442;-70
2021/04/01 05:49:45;;;;;;;12.20;4.20;;;;;;;10.87;69.53;96818.97;4978520;28;20442;-72
2021/04/01 05:58:16;;;;;;;11.30;4.00;;;;;;;10.83;69.58;96820.91;4971523;28;20491;-72
2021/04/01 06:04:09;;;;;;;8.70;4.07;;;;;;;10.77;69.55;96818.66;4964473;28;20649;-70
2021/04/01 06:06:42;;;;;;;17.63;5.00;;;;;;;10.64;69.65;96820.34;4962120;28;20455;-70
2021/04/01 06:09:19;;;;;;;14.30;6.00;;;;;;;10.70;69.69;96814.75;4971068;28;20496;-72
2021/04/01 06:11:51;;;;;;;16.80;6.10;;;;;;;10.89;69.90;96811.94;4985222;28;20940;-71
2021/04/01 06:14:36;;;;;;;12.10;6.00;;;;;;;11.11;69.59;96814.91;4986928;28;20470;-74
2021/04/01 06:17:06;;;;;;;10.90;5.07;;;;;;;11.30;68.55;96790.25;4970463;28;20502;-70
2021/04/01 06:19:34;;;;;;;12.73;4.93;;;;;;;11.66;67.79;96814.06;4961049;28;20504;-70
2021/04/01 06:22:05;;;;;;;17.63;6.30;;;;;;;12.04;67.01;96815.06;4971779;28;20584;-69
2021/04/01 06:24:34;;;;;;;9.83;7.60;;;;;;;12.22;65.82;96813.88;4981773;28;20481;-70
2021/04/01 06:27:10;;;;;;;13.10;7.43;;;;;;;12.34;65.78;96807.00;4968600;28;20966;-71
2021/04/01 06:29:39;;;;;;;11.00;6.87;;;;;;;12.46;65.41;96817.50;4985948;28;21132;-71
2021/04/01 06:32:18;;;;;;;18.67;7.80;;;;;;;12.16;66.41;96808.22;4983468;28;20468;-70
2021/04/01 06:34:45;;;;;;;16.13;8.00;;;;;;;12.06;66.63;96813.19;4971606;28;21197;-69
2021/04/01 06:37:23;;;;;;;28.03;7.87;;;;;;;12.18;66.55;96812.41;4967794;28;21125;-69
2021/04/01 06:39:58;;;;;;;17.20;5.87;;;;;;;12.13;66.78;96808.41;4969183;28;20475;-72
2021/04/01 06:42:30;;;;;;;11.30;6.77;;;;;;;12.09;67.24;96812.97;4969620;28;20553;-71
2021/04/01 06:45:03;;;;;;;10.07;6.13;;;;;;;12.26;66.79;96809.28;4980386;28;20993;-68
2021/04/01 06:47:33;;;;;;;9.73;5.63;;;;;;;12.37;65.97;96810.25;4968046;28;21010;-69
2021/04/01 06:50:07;;;;;;;22.37;6.77;;;;;;;12.54;65.52;96812.63;5001303;28;20931;-71
2021/04/01 06:52:40;;;;;;;17.77;6.43;;;;;;;12.92;64.39;96811.69;4972608;28;20983;-69
2021/04/01 06:55:33;;;;;;;23.97;6.20;;;;;;;13.13;63.38;96812.06;4966799;28;20876;-71
2021/04/01 06:58:13;;;;;;;12.77;5.80;;;;;;;13.61;62.52;96806.03;4972664;28;20464;-69
2021/04/01 07:00:51;;;;;;;13.27;5.57;;;;;;;14.39;60.72;96806.44;4974243;28;20859;-72
2021/04/01 07:03:36;;;;;;;31.57;8.00;;;;;;;15.14;58.95;96800.66;4973938;28;20902;-70
2021/04/01 07:06:04;;;;;;;13.50;7.17;;;;;;;15.86;57.05;96800.19;4969779;28;20440;-71
2021/04/01 07:08:40;;;;;;;14.30;6.20;;;;;;;16.47;55.85;96796.09;4969251;28;20538;-71
2021/04/01 07:11:09;;;;;;;17.03;6.40;;;;;;;17.37;53.98;96796.34;4972488;28;21163;-70
2021/04/01 07:13:43;;;;;;;14.27;6.60;;;;;;;17.98;52.95;96796.97;4967947;28;20930;-71
2021/04/01 07:16:19;;;;;;;12.37;6.30;;;;;;;18.83;50.94;96790.97;4968348;28;20433;-70
2021/04/01 07:19:22;;;;;;;10.90;5.93;;;;;;;19.40;49.35;96785.63;4971768;28;20452;-71
2021/04/01 07:35:51;;;;;;;11.10;4.90;;;;;;;22.56;43.60;96781.59;4948013;28;20463;-72
2021/04/01 07:46:42;;;;;;;15.60;5.40;;;;;;;23.74;42.08;96780.84;4966158;28;20446;-72
2021/04/01 07:49:25;;;;;;;27.70;5.13;;;;;;;24.06;41.86;96770.09;4966788;28;20528;-71
2021/04/01 07:52:08;;;;;;;18.70;4.73;;;;;;;24.70;39.53;96767.94;4985610;28;20782;-72
2021/04/01 07:54:43;;;;;;;6.10;3.83;;;;;;;25.35;38.31;96770.91;4966599;28;21245;-70
2021/04/01 07:57:38;;;;;;;14.33;2.97;;;;;;;25.74;37.28;96771.50;4960688;28;21049;-69
2021/04/01 08:00:15;;;;;;;21.77;3.60;;;;;;;26.15;37.07;96759.38;4969887;28;20823;-70
2021/04/01 08:03:00;;;;;;;8.63;3.33;;;;;;;26.17;36.48;96765.34;4969901;28;20468;-71
2021/04/01 08:05:30;;;;;;;5.03;2.80;;;;;;;26.00;37.48;96769.22;4984446;28;20919;-70
2021/04/01 08:08:00;;;;;;;9.93;3.37;;;;;;;26.32;37.27;96766.13;4969479;28;20468;-72
2021/04/01 08:10:30;;;;;;;6.53;3.10;;;;;;;26.24;37.59;96775.09;4967246;28;20445;-72
2021/04/01 08:13:04;;;;;;;11.53;3.87;;;;;;;26.25;37.64;96760.72;4964097;28;20466;-70
2021/04/01 08:15:38;;;;;;;18.77;3.67;;;;;;;25.90;38.75;96756.16;4966800;28;20566;-70
2021/04/01 08:18:22;;;;;;;10.60;5.23;;;;;;;26.04;37.70;96759.81;4972098;28;21071;-70
2021/04/01 08:20:54;;;;;;;7.00;3.40;;;;;;;25.40;38.65;96757.88;4967546;28;20978;-73
2021/04/01 08:23:44;;;;;;;10.50;3.17;;;;;;;25.15;39.96;96751.06;4969863;28;20561;-72
2021/04/01 08:26:43;;;;;;;13.30;3.10;;;;;;;25.13;39.74;96755.75;4928234;28;20947;-71
2021/04/01 08:35:56;;;;;;;12.90;3.90;;;;;;;23.59;42.98;96762.09;4929495;28;20983;-69
2021/04/01 08:38:43;;;;;;;16.03;8.63;;;;;;;23.86;43.34;96758.25;4941120;28;20905;-70
2021/04/01 08:41:43;;;;;;;11.50;2.43;;;;;;;23.55;42.32;96754.63;4928874;28;21203;-72
2021/04/01 08:44:48;;;;;;;7.30;2.10;;;;;;;23.39;42.92;96757.34;4951492;28;20480;-70
2021/04/01 08:47:47;;;;;;;3.43;2.37;;;;;;;23.15;42.87;96749.44;4947782;28;20576;-70
2021/04/01 08:50:27;;;;;;;16.23;2.90;;;;;;;23.32;41.61;96748.38;4946721;28;20956;-71
2021/04/01 08:53:35;;;;;;;12.30;2.77;;;;;;;23.55;41.03;96749.31;4948231;28;20843;-72
2021/04/01 08:56:18;;;;;;;8.23;2.40;;;;;;;23.70;40.43;96752.94;4949142;28;20972;-73
2021/04/01 08:58:59;;;;;;;6.97;2.60;;;;;;;23.42;40.21;96746.41;4949833;28;20477;-69
2021/04/01 09:01:29;;;;;;;8.53;2.70;;;;;;;23.06;40.51;96740.59;4946989;28;20525;-72
2021/04/01 09:03:59;;;;;;;8.03;2.63;;;;;;;22.77;41.26;96750.09;4937871;28;20964;-69
2021/04/01 09:06:31;;;;;;;3.30;2.33;;;;;;;22.84;41.77;96743.13;4937807;28;20449;-70
2021/04/01 09:09:06;;;;;;;15.50;2.40;;;;;;;22.96;41.53;96742.59;4937727;28;20988;-69
2021/04/01 09:11:36;;;;;;;4.00;2.27;;;;;;;23.18;41.84;96743.75;4939073;28;20433;-71
2021/04/01 09:14:16;;;;;;;5.30;2.33;;;;;;;23.16;41.71;96748.41;4948295;28;20873;-70
2021/04/01 09:16:57;;;;;;;11.57;2.40;;;;;;;23.29;41.16;96748.75;4946405;28;20760;-72
2021/04/01 09:19:28;;;;;;;8.50;2.67;;;;;;;23.54;41.84;96745.84;4945139;28;20937;-71
2021/04/01 09:21:59;;;;;;;6.60;2.77;;;;;;;23.64;41.17;96748.31;4948356;28;20465;-69
2021/04/01 09:24:41;;;;;;;6.63;2.23;;;;;;;23.63;40.67;96747.47;4948761;28;20834;-70
2021/04/01 09:27:11;;;;;;;18.37;2.73;;;;;;;23.55;41.57;96749.31;4970028;28;20432;-69
2021/04/01 09:29:40;;;;;;;4.67;2.50;;;;;;;23.50;41.69;96751.69;4966662;28;20512;-69
2021/04/01 09:32:08;;;;;;;11.13;6.47;;;;;;;23.65;41.82;96742.81;4966099;28;20459;-72
2021/04/01 09:34:37;;;;;;;9.17;2.37;;;;;;;24.06;41.14;96748.81;4937882;28;20878;-70
2021/04/01 09:37:10;;;;;;;4.53;2.73;;;;;;;24.40;40.16;96746.66;4944974;28;20441;-72
2021/04/01 09:39:38;;;;;;;9.73;2.50;;;;;;;24.55;40.39;96744.88;4948201;28;21011;-71
2021/04/01 09:42:12;;;;;;;8.33;2.50;;;;;;;24.94;40.02;96737.59;4948819;28;20948;-70
2021/04/01 09:44:50;;;;;;;13.47;2.60;;;;;;;25.25;39.62;96739.19;4948295;28;20446;-72
2021/04/01 09:47:24;;;;;;;8.10;2.20;;;;;;;25.63;38.97;96747.97;4948324;28;20452;-70
2021/04/01 09:49:57;;;;;;;5.87;1.97;;;;;;;25.95;37.96;96743.09;4948617;28;20504;-73
2021/04/01 09:52:27;;;;;;;4.47;2.27;;;;;;;26.00;37.65;96734.53;4951875;28;20462;-70
2021/04/01 09:54:57;;;;;;;7.27;1.97;;;;;;;26.16;36.94;96735.16;4949735;28;20761;-69
2021/04/01 09:57:43;;;;;;;5.20;2.20;;;;;;;25.95;37.07;96742.25;4961824;28;20933;-74
2021/04/01 10:03:22;;;;;;;3.70;2.30;;;;;;;25.60;38.13;96721.63;4946350;28;20869;-72
2021/04/01 10:05:52;;;;;;;3.63;2.23;;;;;;;25.90;37.48;96723.31;4946999;28;20441;-72
2021/04/01 10:08:23;;;;;;;5.50;2.30;;;;;;;26.21;36.37;96713.25;4945524;28;20938;-72
2021/04/01 10:10:59;;;;;;;3.40;2.43;;;;;;;26.29;36.31;96711.25;4949001;28;20446;-74
2021/04/01 10:13:29;;;;;;;12.30;2.30;;;;;;;26.67;36.73;96701.22;4947116;28;20477;-74
2021/04/01 10:15:58;;;;;;;5.40;2.30;;;;;;;27.11;36.34;96709.81;4963669;28;20931;-72
2021/04/01 10:18:28;;;;;;;6.50;1.80;;;;;;;27.68;35.34;96704.06;4948512;28;21022;-72
2021/04/01 10:21:01;;;;;;;9.67;2.20;;;;;;;27.44;34.40;96703.72;4945808;28;20502;-72
2021/04/01 10:23:29;;;;;;;9.53;2.13;;;;;;;26.20;35.62;96692.91;4947320;28;20488;-72
2021/04/01 10:26:08;;;;;;;5.00;1.93;;;;;;;26.12;36.98;96696.50;4959942;28;20818;-73
2021/04/01 10:28:41;;;;;;;7.03;2.73;;;;;;;27.03;36.81;96691.25;4963810;28;20894;-74
2021/04/01 10:31:14;;;;;;;3.37;2.20;;;;;;;27.49;35.13;96693.25;4967309;28;20777;-72
2021/04/01 10:33:54;;;;;;;2.20;1.93;;;;;;;27.79;34.77;96686.66;4963774;28;20464;-74
2021/04/01 10:36:27;;;;;;;4.83;1.90;;;;;;;28.22;34.58;96678.16;4966583;28;20904;-75
2021/04/01 10:39:01;;;;;;;144.97;105.47;;;;;;;27.72;34.08;96675.06;4964418;28;20865;-72
2021/04/01 10:41:30;;;;;;;7.77;2.37;;;;;;;27.83;34.46;96671.03;4963290;28;20955;-73
2021/04/01 10:44:00;;;;;;;4.20;2.50;;;;;;;28.48;34.08;96674.75;4958716;28;20488;-74
2021/04/01 10:46:29;;;;;;;2.70;1.50;;;;;;;28.42;33.34;96671.03;4960131;28;20765;-74
2021/04/01 10:49:01;;;;;;;2.80;1.60;;;;;;;28.33;33.77;96666.03;4957803;28;20859;-72
2021/04/01 10:51:29;;;;;;;3.47;1.80;;;;;;;28.50;33.79;96672.72;4966552;28;20873;-72
2021/04/01 10:54:16;;;;;;;4.87;1.87;;;;;;;28.60;32.25;96655.16;4967582;28;21183;-73
2021/04/01 10:56:48;;;;;;;3.00;2.47;;;;;;;28.89;33.10;96660.13;4971021;28;20984;-73
2021/04/01 10:59:16;;;;;;;3.47;1.97;;;;;;;29.39;32.08;96654.13;4971294;28;20845;-71
2021/04/01 11:01:44;;;;;;;14.33;2.17;;;;;;;29.68;32.30;96653.66;4969342;28;20504;-74
2021/04/01 11:04:13;;;;;;;2.37;1.40;;;;;;;29.49;31.61;96651.03;4950515;28;20980;-71
2021/04/01 11:06:42;;;;;;;11.07;2.37;;;;;;;29.46;31.63;96649.56;4980188;28;20951;-72
2021/04/01 11:09:11;;;;;;;8.80;3.30;;;;;;;29.83;31.65;96646.19;4953359;28;20477;-74
2021/04/01 11:12:00;;;;;;;2.83;1.67;;;;;;;29.18;31.70;96637.47;4952292;28;20826;-71
2021/04/01 11:14:30;;;;;;;5.37;1.63;;;;;;;28.18;33.57;96635.91;4971355;28;20461;-71
2021/04/01 11:16:59;;;;;;;5.37;2.17;;;;;;;28.51;33.70;96634.97;4967852;28;20430;-72
2021/04/01 11:19:28;;;;;;;4.60;2.00;;;;;;;29.41;32.81;96638.66;4970180;28;20457;-72
2021/04/01 11:21:55;;;;;;;4.77;1.90;;;;;;;30.03;31.86;96640.72;4965532;28;20462;-74
2021/04/01 11:24:29;;;;;;;8.03;2.07;;;;;;;30.11;32.01;96633.28;4969506;28;20446;-72
2021/04/01 11:26:58;;;;;;;9.00;1.90;;;;;;;30.60;31.23;96625.31;4969429;28;20958;-72
2021/04/01 11:29:30;;;;;;;5.57;1.40;;;;;;;30.99;30.92;96619.63;4970340;28;20437;-74
2021/04/01 11:32:17;;;;;;;3.43;1.47;;;;;;;30.96;30.73;96612.03;4968472;28;20913;-72
2021/04/01 11:34:44;;;;;;;2.90;1.40;;;;;;;30.74;30.13;96623.38;4966390;28;20943;-72
2021/04/01 11:37:13;;;;;;;3.00;1.60;;;;;;;29.34;31.33;96624.44;4957766;28;20445;-72
2021/04/01 11:39:40;;;;;;;21.03;2.83;;;;;;;30.06;31.84;96619.63;4957140;28;20998;-73
2021/04/01 11:42:12;;;;;;;13.43;7.67;;;;;;;30.47;30.78;96609.28;4970048;28;20464;-72
2021/04/01 11:44:40;;;;;;;5.60;1.63;;;;;;;30.35;31.32;96612.88;4967623;28;20467;-72
2021/04/01 11:47:20;;;;;;;4.00;2.33;;;;;;;30.71;30.75;96608.50;4969839;28;20930;-71
2021/04/01 11:49:49;;;;;;;6.30;1.80;;;;;;;30.99;30.13;96610.75;4970713;28;20445;-73
2021/04/01 11:52:23;;;;;;;4.33;1.90;;;;;;;31.59;29.89;96602.69;4970699;28;20785;-72
2021/04/01 11:54:52;;;;;;;3.20;1.73;;;;;;;31.19;29.48;96609.56;4951895;28;20441;-74
2021/04/01 11:57:22;;;;;;;3.60;1.67;;;;;;;31.41;29.76;96604.53;4969349;28;20987;-72
2021/04/01 11:59:52;;;;;;;2.50;1.73;;;;;;;31.31;29.97;96610.47;4967772;28;20986;-74
2021/04/01 12:02:22;;;;;;;3.03;1.57;;;;;;;31.45;29.28;96605.75;4969032;28;21112;-72
2021/04/01 12:04:51;;;;;;;7.13;1.60;;;;;;;31.42;29.87;96598.94;4969428;28;20441;-72
2021/04/01 12:07:19;;;;;;;3.20;1.80;;;;;;;31.54;29.88;96599.84;4967827;28;20465;-72
2021/04/01 12:09:48;;;;;;;8.23;2.13;;;;;;;31.69;29.17;96592.22;4981958;28;20444;-73
2021/04/01 12:12:32;;;;;;;7.27;2.10;;;;;;;32.03;29.22;96590.78;4967558;28;20804;-73
2021/04/01 12:14:59;;;;;;;3.53;2.17;;;;;;;31.99;29.85;96593.09;4968468;28;20892;-74
2021/04/01 12:17:32;;;;;;;15.13;2.00;;;;;;;32.11;29.84;96595.84;4970185;28;21202;-72
2021/04/01 12:20:00;;;;;;;6.17;1.90;;;;;;;32.20;29.44;96589.91;4966885;28;20901;-75
2021/04/01 12:22:32;;;;;;;2.90;1.47;;;;;;;31.92;28.81;96578.06;4970911;28;20982;-73
2021/04/01 12:25:01;;;;;;;4.80;2.00;;;;;;;31.47;29.64;96577.56;4967890;28;20983;-72
2021/04/01 12:27:29;;;;;;;10.50;3.47;;;;;;;31.29;29.65;96569.47;4970103;28;21018;-72
2021/04/01 12:29:57;;;;;;;9.40;2.33;;;;;;;31.51;29.47;96578.75;4969898;28;20850;-72
2021/04/01 12:32:32;;;;;;;9.23;2.40;;;;;;;31.79;29.88;96576.38;4983968;28;20452;-73
2021/04/01 12:35:12;;;;;;;8.20;2.83;;;;;;;31.31;29.09;96567.41;4971960;28;20449;-72
2021/04/01 12:37:40;;;;;;;3.53;2.23;;;;;;;30.86;29.28;96571.34;4979729;28;20857;-72
2021/04/01 12:40:10;;;;;;;10.90;4.50;;;;;;;30.91;29.91;96576.06;4964174;28;20532;-71